PORT of BREST

Country: France Country: France (FR)
Latitude / Longitude: 48.376655° / -4.4856975° Show on Map Show on Map
Local Time:  UTC +2
UN/LOCODE: FRBES
Vessels in Port: 12
Expected Arrivals: 2

Recent Arrivals & Departures


Vessel Name
Arrival (UTC)
Arrival (LT)
Departure (UTC)
Departure (LT)
Vessel Type: Passenger Vessels  BINDY 2014-09-29 16:58:00 2014-09-29 18:58:00 2014-09-30 05:36:00 2014-09-30 07:36:00
Vessel Type: Passenger Vessels  LOUARN 2014-09-29 15:23:00 2014-09-29 17:23:00 2014-09-30 05:33:00 2014-09-30 07:33:00
Vessel Type: Passenger Vessels  TIBIDY 2014-09-29 14:52:00 2014-09-29 16:52:00 2014-09-30 05:30:00 2014-09-30 07:30:00
Vessel Type: Passenger Vessels  TERENEZ 2014-09-29 15:03:00 2014-09-29 17:03:00 2014-09-30 05:25:00 2014-09-30 07:25:00
Vessel Type: Passenger Vessels  ARUN 2014-09-29 15:14:00 2014-09-29 17:14:00 2014-09-30 05:24:00 2014-09-30 07:24:00
BEL ESPOIR 2014-09-28 15:54:00 2014-09-28 17:54:00 2014-09-29 19:22:00 2014-09-29 21:22:00
Vessel Type: Yachts & Others  BREST-PILOTE 2014-09-29 19:20:00 2014-09-29 21:20:00
Vessel Type: Yachts & Others  BREST-PILOTE 2014-09-23 17:54:00 2014-09-23 19:54:00 2014-09-29 19:03:00 2014-09-29 21:03:00
Vessel Type: Cargo Vessels  RONEZ 2014-09-28 06:54:00 2014-09-28 08:54:00 2014-09-29 19:02:00 2014-09-29 21:02:00
Vessel Type: Cargo Vessels  VN PARTISAN 2014-09-25 21:02:00 2014-09-25 23:02:00 2014-09-29 18:18:00 2014-09-29 20:18:00

Expected Arrivals


Vessel Name
Scheduled Arrival (UTC)
Scheduled Arrival (LT)
Estimated Arrival (UTC)
Estimated Arrival (LT)
Vessel Type: Cargo Vessels  KRUCKAU 2014-10-01 06:00:00 2014-10-01 08:00:00 2014-10-01 00:08:00 2014-10-01 02:08:00
Vessel Type: Cargo Vessels  RAYMOND CROZE 2014-10-01 08:00:00 2014-10-01 10:00:00 2014-10-01 22:14:00 2014-10-02 00:14:00

Wind Forecast


    
Time (UTC)
Speed
Direction
Temperature
2014-09-30 06:00:00 8 knots 253° 18°C
2014-09-30 09:00:00 8 knots 233° 18°C
2014-09-30 12:00:00 9 knots 257° 18°C
2014-09-30 15:00:00 8 knots 264° 18°C
2014-09-30 18:00:00 7 knots 247° 18°C
2014-09-30 21:00:00 7 knots 225° 18°C
2014-10-01 00:00:00 7 knots 224° 18°C
2014-10-01 03:00:00 7 knots 219° 18°C
2014-10-01 06:00:00 7 knots 229° 18°C
2014-10-01 09:00:00 8 knots 224° 17°C
2014-10-01 12:00:00 9 knots 254° 17°C
2014-10-01 15:00:00 8 knots 270° 17°C
2014-10-01 18:00:00 5 knots 281° 17°C
2014-10-01 21:00:00 3 knots 311° 17°C
2014-10-02 00:00:00 4 knots 17° 17°C
2014-10-02 03:00:00 7 knots 32° 16°C